createdAt,value
2024-01-24T00:02:02.859Z,100212.88
2024-01-24T00:04:29.896Z,100211.00
2024-01-24T00:07:00.079Z,100206.28
2024-01-24T00:09:27.107Z,100201.91
2024-01-24T00:11:54.780Z,100203.22
2024-01-24T00:14:21.544Z,100188.78
2024-01-24T00:16:48.396Z,100186.91
2024-01-24T00:19:15.414Z,100172.75
2024-01-24T00:21:42.369Z,100173.59
2024-01-24T00:24:10.154Z,100160.22
2024-01-24T00:26:40.141Z,100163.53
2024-01-24T00:29:08.879Z,100156.94
2024-01-24T00:31:35.851Z,100144.06
2024-01-24T00:34:03.510Z,100145.38
2024-01-24T00:36:30.311Z,100139.00
2024-01-24T00:38:57.047Z,100128.50
2024-01-24T00:41:23.900Z,100128.38
2024-01-24T00:43:50.654Z,100125.44
2024-01-24T00:46:17.316Z,100128.72
2024-01-24T00:48:44.257Z,100108.78
2024-01-24T00:51:13.600Z,100099.94
2024-01-24T00:53:42.064Z,100094.41
2024-01-24T00:56:08.762Z,100077.19
2024-01-24T00:58:35.639Z,100071.97
2024-01-24T01:01:03.212Z,100059.50
2024-01-24T01:03:33.318Z,100063.84
2024-01-24T01:06:00.214Z,100074.22
2024-01-24T01:08:27.797Z,100074.22
2024-01-24T01:10:54.409Z,100071.75
2024-01-24T01:13:23.929Z,100078.22
2024-01-24T01:15:50.673Z,100060.06
2024-01-24T01:18:18.688Z,100059.25
2024-01-24T01:20:46.048Z,100059.50
2024-01-24T01:23:12.769Z,100048.88
2024-01-24T01:25:39.405Z,100034.72
2024-01-24T01:28:06.365Z,100027.63
2024-01-24T01:30:32.999Z,100023.50
2024-01-24T01:32:59.871Z,100016.44
2024-01-24T01:35:26.582Z,100010.53
2024-01-24T01:37:53.179Z,100003.22
2024-01-24T01:40:19.945Z,99983.78
2024-01-24T01:42:47.068Z,99984.16
2024-01-24T01:45:14.148Z,99976.59
2024-01-24T01:47:41.235Z,99979.28
2024-01-24T01:50:11.633Z,99971.53
2024-01-24T01:52:39.944Z,99952.66
2024-01-24T01:55:08.171Z,99955.13
2024-01-24T01:57:35.565Z,99948.88
2024-01-24T02:00:04.035Z,99932.59
2024-01-24T02:02:31.132Z,99936.34
2024-01-24T02:04:57.852Z,99937.19
2024-01-24T02:07:24.833Z,99930.81
2024-01-24T02:09:51.551Z,99913.94
2024-01-24T02:12:18.166Z,99906.38
2024-01-24T02:14:44.731Z,99899.91
2024-01-24T02:17:11.325Z,99903.94
2024-01-24T02:19:38.271Z,99890.38
2024-01-24T02:22:04.900Z,99884.09
2024-01-24T02:24:31.587Z,99877.38
2024-01-24T02:26:58.278Z,99864.16
2024-01-24T02:29:24.834Z,99852.56
2024-01-24T02:31:51.572Z,99850.19
2024-01-24T02:34:18.332Z,99845.34
2024-01-24T02:36:44.997Z,99841.78
2024-01-24T02:39:12.546Z,99841.78
2024-01-24T02:41:41.348Z,99845.91
2024-01-24T02:44:08.096Z,99835.13
2024-01-24T02:46:35.486Z,99793.28
2024-01-24T02:49:02.718Z,99794.25
2024-01-24T02:51:29.601Z,99807.03
2024-01-24T02:53:56.504Z,99797.97
2024-01-24T02:56:23.202Z,99797.00
2024-01-24T02:58:49.818Z,99810.97
2024-01-24T03:01:17.322Z,99796.56
2024-01-24T03:03:46.928Z,99774.00
2024-01-24T03:06:13.781Z,99778.63
2024-01-24T03:08:51.134Z,99766.19
2024-01-24T03:11:17.861Z,99771.13
2024-01-24T03:13:45.195Z,99732.66
2024-01-24T03:16:12.047Z,99727.03
2024-01-24T03:18:40.277Z,99723.50
2024-01-24T03:21:10.124Z,99719.44
2024-01-24T03:23:40.375Z,99739.00
2024-01-24T03:26:07.819Z,99722.16
2024-01-24T03:28:35.453Z,99700.47
2024-01-24T03:31:03.246Z,99663.06
2024-01-24T03:33:30.106Z,99670.53
2024-01-24T03:35:56.792Z,99680.06
2024-01-24T03:38:23.871Z,99674.63
2024-01-24T03:40:50.569Z,99663.47
2024-01-24T03:43:17.156Z,99676.09
2024-01-24T03:45:43.833Z,99678.28
2024-01-24T03:48:10.524Z,99666.91
2024-01-24T03:50:37.152Z,99682.50
2024-01-24T03:53:04.076Z,99685.25
2024-01-24T03:55:33.031Z,99651.28
2024-01-24T03:58:02.681Z,99675.91
2024-01-24T04:00:29.368Z,99683.31
2024-01-24T04:02:56.042Z,99697.53
2024-01-24T04:05:22.731Z,99664.31
2024-01-24T04:07:49.383Z,99685.25
2024-01-24T04:10:17.194Z,99675.75
2024-01-24T04:12:54.600Z,99649.72
2024-01-24T04:15:23.787Z,99668.59
2024-01-24T04:17:50.582Z,99621.44
2024-01-24T04:20:17.489Z,99611.19
2024-01-24T04:22:44.084Z,99603.59
2024-01-24T04:25:10.701Z,99592.19
2024-01-24T04:27:37.531Z,99595.19
2024-01-24T04:30:05.768Z,99603.66
2024-01-24T04:32:33.254Z,99570.44
2024-01-24T04:35:00.170Z,99575.03
2024-01-24T04:37:26.954Z,99578.34
2024-01-24T04:39:53.785Z,99567.47
2024-01-24T04:42:20.641Z,99558.75
2024-01-24T04:44:47.462Z,99567.50
2024-01-24T04:47:17.065Z,99555.50
2024-01-24T04:49:45.680Z,99562.06
2024-01-24T04:52:15.428Z,99554.16
2024-01-24T04:54:45.331Z,99544.88
2024-01-24T04:57:12.056Z,99528.50
2024-01-24T04:59:46.599Z,99523.88
2024-01-24T05:02:20.922Z,99537.50
2024-01-24T05:04:48.922Z,99544.06
2024-01-24T05:07:16.053Z,99528.25
2024-01-24T05:09:42.827Z,99555.53
2024-01-24T05:12:09.452Z,99530.72
2024-01-24T05:14:36.178Z,99543.00
2024-01-24T05:17:02.876Z,99543.81
2024-01-24T05:19:29.871Z,99537.00
2024-01-24T05:21:57.671Z,99543.81
2024-01-24T05:24:24.491Z,99547.66
2024-01-24T05:26:51.089Z,99543.28
2024-01-24T05:29:18.016Z,99537.00
2024-01-24T05:31:44.747Z,99531.00
2024-01-24T05:34:11.547Z,99554.97
2024-01-24T05:36:38.560Z,99550.38
2024-01-24T05:39:08.704Z,99536.78
2024-01-24T05:41:36.782Z,99561.59
2024-01-24T05:44:04.586Z,99542.19
2024-01-24T05:46:31.523Z,99554.25
2024-01-24T05:49:01.922Z,99549.34
2024-01-24T05:51:32.717Z,99557.78
2024-01-24T05:54:02.118Z,99561.63
2024-01-24T05:56:39.323Z,99531.59
2024-01-24T05:59:06.608Z,99542.25
2024-01-24T06:01:55.070Z,99553.16
2024-01-24T06:08:38.235Z,99516.00
2024-01-24T06:17:52.558Z,99522.56
2024-01-24T06:24:46.190Z,99556.09
2024-01-24T06:27:36.606Z,99552.03
2024-01-24T06:30:29.800Z,99535.06
2024-01-24T06:33:20.391Z,99507.50
2024-01-24T06:39:46.321Z,99540.47
2024-01-24T06:42:35.099Z,99503.63
2024-01-24T06:46:54.939Z,99539.16
2024-01-24T06:48:53.912Z,99505.56
2024-01-24T06:51:53.011Z,99485.63
2024-01-24T06:55:09.665Z,99503.06
2024-01-24T06:57:49.188Z,99520.78
2024-01-24T07:04:20.534Z,99525.19
2024-01-24T07:07:10.889Z,99538.53
2024-01-24T07:09:38.728Z,99522.72
2024-01-24T07:13:03.584Z,99519.19
2024-01-24T07:15:46.616Z,99538.25
2024-01-24T07:18:40.025Z,99554.34
2024-01-24T07:24:28.064Z,99524.31
2024-01-24T07:27:05.424Z,99526.41
2024-01-24T07:30:05.863Z,99513.81
2024-01-24T07:36:10.187Z,99503.38
2024-01-24T07:39:12.522Z,99491.34
2024-01-24T07:42:16.847Z,99492.44
2024-01-24T07:48:04.937Z,99492.03
2024-01-24T07:51:05.435Z,99496.03
2024-01-24T07:53:35.851Z,99483.47
2024-01-24T07:56:20.840Z,99481.25
2024-01-24T08:01:45.193Z,99494.84
2024-01-24T08:04:34.483Z,99504.97
2024-01-24T08:09:57.892Z,99494.16
2024-01-24T08:12:31.790Z,99491.44
2024-01-24T08:15:14.195Z,99504.59
2024-01-24T08:17:48.098Z,99514.81
2024-01-24T08:20:26.196Z,99509.44
2024-01-24T08:23:03.232Z,99515.28
2024-01-24T08:25:33.786Z,99512.94
2024-01-24T08:28:14.021Z,99523.66
2024-01-24T08:30:46.494Z,99536.31
2024-01-24T08:33:17.390Z,99547.41
2024-01-24T08:35:47.136Z,99556.78
2024-01-24T08:38:19.452Z,99526.06
2024-01-24T08:40:52.767Z,99547.78
2024-01-24T08:43:20.395Z,99570.03
2024-01-24T08:45:49.560Z,99562.22
2024-01-24T08:48:44.483Z,99563.53
2024-01-24T08:51:18.481Z,99568.53
2024-01-24T08:53:48.831Z,99585.94
2024-01-24T08:56:20.406Z,99585.06
2024-01-24T08:58:47.920Z,99578.59
2024-01-24T09:01:15.920Z,99561.72
2024-01-24T09:03:45.028Z,99569.41
2024-01-24T09:06:21.357Z,99561.81
2024-01-24T09:08:54.999Z,99559.34
2024-01-24T09:11:27.264Z,99566.78
2024-01-24T09:13:56.689Z,99549.38
2024-01-24T09:16:24.460Z,99532.47
2024-01-24T09:18:54.940Z,99535.97
2024-01-24T09:21:27.987Z,99536.84
2024-01-24T09:24:00.938Z,99540.59
2024-01-24T09:26:33.353Z,99549.53
2024-01-24T09:29:24.533Z,99554.72
2024-01-24T09:31:53.529Z,99540.22
2024-01-24T09:34:32.352Z,99555.41
2024-01-24T09:37:02.580Z,99539.97
2024-01-24T09:39:30.545Z,99558.41
2024-01-24T09:41:58.835Z,99555.53
2024-01-24T09:44:28.654Z,99568.06
2024-01-24T09:46:57.139Z,99550.88
2024-01-24T09:49:25.286Z,99556.22
2024-01-24T09:52:02.789Z,99538.03
2024-01-24T09:54:37.663Z,99545.97
2024-01-24T09:57:13.402Z,99561.75
2024-01-24T09:59:41.349Z,99567.66
2024-01-24T10:02:09.966Z,99575.41
2024-01-24T10:04:39.346Z,99583.69
2024-01-24T10:07:10.761Z,99581.34
2024-01-24T10:12:33.265Z,99586.69
2024-01-24T10:15:02.488Z,99586.31
2024-01-24T10:17:30.685Z,99603.31
2024-01-24T10:20:00.925Z,99588.13
2024-01-24T10:22:29.790Z,99596.09
2024-01-24T10:25:03.078Z,99606.75
2024-01-24T10:27:34.964Z,99598.41
2024-01-24T10:30:14.695Z,99598.94
2024-01-24T10:32:50.314Z,99606.16
2024-01-24T10:35:22.002Z,99581.78
2024-01-24T10:37:56.632Z,99593.94
2024-01-24T10:40:30.337Z,99610.78
2024-01-24T10:43:09.047Z,99601.09
2024-01-24T10:45:38.782Z,99632.19
2024-01-24T10:48:09.815Z,99667.06
2024-01-24T10:50:42.018Z,99713.75
2024-01-24T10:53:16.488Z,99682.22
2024-01-24T10:55:43.409Z,99689.66
2024-01-24T10:58:17.669Z,99685.03
2024-01-24T11:00:44.801Z,99659.34
2024-01-24T11:03:12.255Z,99666.97
2024-01-24T11:05:51.799Z,99694.28
2024-01-24T11:08:36.283Z,99687.47
2024-01-24T11:11:14.457Z,99687.44
2024-01-24T11:13:44.185Z,99681.72
2024-01-24T11:16:26.783Z,99675.16
2024-01-24T11:19:00.089Z,99684.72
2024-01-24T11:21:33.455Z,99681.72
2024-01-24T11:24:00.744Z,99704.41
2024-01-24T11:26:27.915Z,99709.88
2024-01-24T11:29:14.701Z,99719.72
2024-01-24T11:31:46.972Z,99700.31
2024-01-24T11:34:15.754Z,99707.91
2024-01-24T11:36:50.209Z,99706.53
2024-01-24T11:39:32.064Z,99706.28
2024-01-24T11:42:45.765Z,99699.47
2024-01-24T11:45:28.962Z,99704.09
2024-01-24T11:47:57.970Z,99710.91
2024-01-24T11:50:25.232Z,99715.56
2024-01-24T11:53:14.568Z,99702.78
2024-01-24T11:55:58.442Z,99710.16
2024-01-24T11:58:30.435Z,99711.81
2024-01-24T12:01:04.674Z,99704.69
2024-01-24T12:03:32.819Z,99692.41
2024-01-24T12:06:01.101Z,99698.69
2024-01-24T12:08:30.717Z,99705.50
2024-01-24T12:11:00.692Z,99716.69
2024-01-24T12:13:29.060Z,99716.69
2024-01-24T12:15:57.001Z,99720.25
2024-01-24T12:18:24.590Z,99730.09
2024-01-24T12:20:56.856Z,99736.94
2024-01-24T12:23:26.265Z,99742.13
2024-01-24T12:25:55.134Z,99741.56
2024-01-24T12:28:29.016Z,99739.41
2024-01-24T12:30:59.051Z,99735.28
2024-01-24T12:33:26.876Z,99747.59
2024-01-24T12:35:57.280Z,99758.53
2024-01-24T12:38:47.226Z,99771.66
2024-01-24T12:41:23.733Z,99780.91
2024-01-24T12:43:53.982Z,99768.88
2024-01-24T12:46:24.396Z,99791.81
2024-01-24T12:48:51.285Z,99783.34
2024-01-24T12:51:18.452Z,99770.72
2024-01-24T12:53:45.936Z,99765.88
2024-01-24T12:56:16.955Z,99772.38
2024-01-24T12:58:43.821Z,99772.91
2024-01-24T13:01:10.527Z,99781.09
2024-01-24T13:03:38.297Z,99785.97
2024-01-24T13:06:05.594Z,99767.66
2024-01-24T13:08:41.941Z,99763.25
2024-01-24T13:11:09.273Z,99771.75
2024-01-24T13:13:36.333Z,99772.56
2024-01-24T13:16:04.289Z,99770.09
2024-01-24T13:18:31.170Z,99784.31
2024-01-24T13:20:58.306Z,99774.50
2024-01-24T13:23:25.809Z,99795.25
2024-01-24T13:25:52.496Z,99791.19
2024-01-24T13:28:19.501Z,99812.25
2024-01-24T13:30:50.520Z,99799.47
2024-01-24T13:33:18.211Z,99803.56
2024-01-24T13:35:47.344Z,99792.38
2024-01-24T13:38:14.818Z,99794.84
2024-01-24T13:40:41.804Z,99812.34
2024-01-24T13:43:08.730Z,99809.91
2024-01-24T13:45:38.549Z,99803.59
2024-01-24T13:48:08.484Z,99810.19
2024-01-24T13:50:38.842Z,99814.84
2024-01-24T13:53:05.799Z,99837.78
2024-01-24T13:55:32.869Z,99839.97
2024-01-24T13:58:01.805Z,99827.94
2024-01-24T14:00:28.848Z,99850.31
2024-01-24T14:02:55.779Z,99851.97
2024-01-24T14:05:22.693Z,99838.28
2024-01-24T14:07:49.535Z,99861.22
2024-01-24T14:10:16.311Z,99867.47
2024-01-24T14:12:43.642Z,99878.03
2024-01-24T14:15:19.869Z,99886.41
2024-01-24T14:17:55.030Z,99877.72
2024-01-24T14:20:22.114Z,99889.75
2024-01-24T14:22:49.184Z,99881.13
2024-01-24T14:25:15.890Z,99894.47
2024-01-24T14:27:44.209Z,99892.31
2024-01-24T14:30:11.713Z,99902.44
2024-01-24T14:32:41.627Z,99903.03
2024-01-24T14:35:09.209Z,99895.41
2024-01-24T14:37:36.439Z,99896.28
2024-01-24T14:40:03.698Z,99877.28
2024-01-24T14:42:30.839Z,99907.91
2024-01-24T14:44:57.610Z,99885.06
2024-01-24T14:47:24.224Z,99909.09
2024-01-24T14:49:51.170Z,99898.19
2024-01-24T14:52:18.197Z,99922.75
2024-01-24T14:54:45.833Z,99917.28
2024-01-24T14:57:12.598Z,99931.47
2024-01-24T14:59:39.259Z,99920.00
2024-01-24T15:02:06.512Z,99918.94
2024-01-24T15:04:33.384Z,99914.00
2024-01-24T15:07:00.517Z,99907.16
2024-01-24T15:09:27.354Z,99925.97
2024-01-24T15:12:03.483Z,99935.19
2024-01-24T15:14:30.817Z,99936.03
2024-01-24T15:16:58.725Z,99945.53
2024-01-24T15:19:30.033Z,99938.16
2024-01-24T15:21:57.745Z,99959.44
2024-01-24T15:24:38.638Z,99942.75
2024-01-24T15:27:12.236Z,99973.28
2024-01-24T15:29:40.295Z,99963.16
2024-01-24T15:32:17.197Z,99950.28
2024-01-24T15:34:44.522Z,99948.34
2024-01-24T15:37:11.484Z,99961.72
2024-01-24T15:39:43.957Z,99958.69
2024-01-24T15:42:13.643Z,99934.09
2024-01-24T15:44:43.934Z,99959.47
2024-01-24T15:47:10.902Z,99967.09
2024-01-24T15:49:39.077Z,99953.72
2024-01-24T15:52:06.311Z,99961.31
2024-01-24T15:54:37.476Z,99976.31
2024-01-24T15:57:09.064Z,99978.72
2024-01-24T15:59:38.847Z,99976.22
2024-01-24T16:02:05.858Z,99972.63
2024-01-24T16:04:34.788Z,99972.06
2024-01-24T16:07:02.154Z,99981.38
2024-01-24T16:09:29.498Z,99973.81
2024-01-24T16:11:56.377Z,99977.06
2024-01-24T16:14:28.185Z,99981.44
2024-01-24T16:16:56.196Z,99990.22
2024-01-24T16:19:23.759Z,100002.22
2024-01-24T16:21:54.606Z,99984.25
2024-01-24T16:24:21.488Z,100002.53
2024-01-24T16:26:48.308Z,100012.34
2024-01-24T16:29:15.470Z,100011.63
2024-01-24T16:31:45.826Z,100027.97
2024-01-24T16:34:12.802Z,100027.97
2024-01-24T16:36:39.757Z,100024.69
2024-01-24T16:39:06.734Z,100011.06
2024-01-24T16:41:33.609Z,100016.88
2024-01-24T16:44:00.580Z,100020.16
2024-01-24T16:46:27.451Z,100029.47
2024-01-24T16:48:56.493Z,100044.47
2024-01-24T16:51:24.129Z,100042.25
2024-01-24T16:53:51.062Z,100052.31
2024-01-24T16:56:17.991Z,100040.81
2024-01-24T16:58:44.902Z,100043.81
2024-01-24T17:01:15.351Z,100047.91
2024-01-24T17:03:48.792Z,100047.06
2024-01-24T17:06:19.874Z,100037.53
2024-01-24T17:08:50.106Z,100042.16
2024-01-24T17:11:20.115Z,100047.63
2024-01-24T17:13:59.692Z,100059.63
2024-01-24T17:16:27.949Z,100053.59
2024-01-24T17:18:54.755Z,100062.59
2024-01-24T17:21:21.914Z,100066.97
2024-01-24T17:23:49.215Z,100065.09
2024-01-24T17:26:20.524Z,100065.31
2024-01-24T17:28:47.468Z,100076.22
2024-01-24T17:31:14.620Z,100081.69
2024-01-24T17:33:41.325Z,100088.47
2024-01-24T17:36:08.546Z,100094.72
2024-01-24T17:38:35.656Z,100096.84
2024-01-24T17:41:02.864Z,100102.31
2024-01-24T17:43:31.017Z,100089.19
2024-01-24T17:45:58.335Z,100100.59
2024-01-24T17:48:25.310Z,100107.69
2024-01-24T17:50:52.615Z,100109.03
2024-01-24T17:53:19.654Z,100112.59
2024-01-24T17:55:47.274Z,100114.50
2024-01-24T17:58:14.334Z,100122.06
2024-01-24T18:00:41.146Z,100130.25
2024-01-24T18:03:08.570Z,100139.53
2024-01-24T18:05:36.307Z,100133.75
2024-01-24T18:08:08.046Z,100135.91
2024-01-24T18:10:36.107Z,100143.25
2024-01-24T18:13:28.928Z,100129.00
2024-01-24T18:15:56.666Z,100141.72
2024-01-24T18:18:26.295Z,100148.19
2024-01-24T18:20:54.760Z,100151.97
2024-01-24T18:23:22.481Z,100137.78
2024-01-24T18:25:49.738Z,100162.56
2024-01-24T18:28:17.618Z,100159.03
2024-01-24T18:30:44.788Z,100158.69
2024-01-24T18:33:14.756Z,100164.38
2024-01-24T18:35:44.374Z,100166.53
2024-01-24T18:38:11.135Z,100173.53
2024-01-24T18:40:37.979Z,100173.81
2024-01-24T18:43:05.097Z,100180.66
2024-01-24T18:45:32.109Z,100177.38
2024-01-24T18:47:59.516Z,100174.31
2024-01-24T18:50:30.290Z,100186.88
2024-01-24T18:52:57.059Z,100181.66
2024-01-24T18:55:23.934Z,100177.75
2024-01-24T18:57:51.157Z,100198.97
2024-01-24T19:00:18.981Z,100189.56
2024-01-24T19:02:49.063Z,100182.56
2024-01-24T19:05:19.873Z,100175.63
2024-01-24T19:07:52.490Z,100182.16
2024-01-24T19:10:19.365Z,100194.44
2024-01-24T19:12:46.581Z,100193.16
2024-01-24T19:15:13.447Z,100193.44
2024-01-24T19:17:40.907Z,100212.63
2024-01-24T19:20:08.344Z,100222.69
2024-01-24T19:22:35.207Z,100208.78
2024-01-24T19:25:05.937Z,100215.69
2024-01-24T19:27:33.111Z,100211.84
2024-01-24T19:29:59.843Z,100234.97
2024-01-24T19:32:26.668Z,100218.06
2024-01-24T19:34:55.879Z,100226.47
2024-01-24T19:37:23.637Z,100220.69
2024-01-24T19:39:50.500Z,100222.50
2024-01-24T19:42:17.928Z,100221.09
2024-01-24T19:44:44.740Z,100213.97
2024-01-24T19:47:54.031Z,100206.09
2024-01-24T19:50:46.708Z,100214.25
2024-01-24T19:53:57.394Z,100212.34
2024-01-24T19:59:47.923Z,100217.69
2024-01-24T20:02:14.957Z,100212.25
2024-01-24T20:04:49.386Z,100209.53
2024-01-24T20:07:19.568Z,100218.78
2024-01-24T20:09:46.625Z,100219.59
2024-01-24T20:12:13.604Z,100213.91
2024-01-24T20:14:40.501Z,100223.97
2024-01-24T20:17:07.442Z,100236.75
2024-01-24T20:19:34.485Z,100244.97
2024-01-24T20:22:01.261Z,100232.41
2024-01-24T20:24:28.313Z,100250.06
2024-01-24T20:26:55.063Z,100251.84
2024-01-24T20:29:26.527Z,100249.13
2024-01-24T20:31:56.586Z,100248.06
2024-01-24T20:34:23.484Z,100248.66
2024-01-24T20:36:50.384Z,100249.22
2024-01-24T20:39:19.568Z,100236.19
2024-01-24T20:41:47.884Z,100261.03
2024-01-24T20:44:20.492Z,100251.47
2024-01-24T20:46:47.226Z,100247.25
2024-01-24T20:49:17.385Z,100247.13
2024-01-24T20:51:47.952Z,100243.34
2024-01-24T20:54:18.674Z,100256.72
2024-01-24T20:56:45.558Z,100250.06
2024-01-24T20:59:12.497Z,100276.41
2024-01-24T21:01:39.443Z,100289.22
2024-01-24T21:04:06.551Z,100303.09
2024-01-24T21:06:47.711Z,100298.03
2024-01-24T21:09:18.779Z,100288.47
2024-01-24T21:11:48.821Z,100290.94
2024-01-24T21:14:15.618Z,100273.81
2024-01-24T21:16:44.200Z,100281.94
2024-01-24T21:19:17.506Z,100278.97
2024-01-24T21:21:44.952Z,100286.75
2024-01-24T21:24:13.895Z,100285.47
2024-01-24T21:26:41.157Z,100280.63
2024-01-24T21:29:07.954Z,100279.69
2024-01-24T21:31:34.752Z,100282.41
2024-01-24T21:34:02.340Z,100285.25
2024-01-24T21:36:29.129Z,100286.44
2024-01-24T21:38:55.873Z,100281.13
2024-01-24T21:41:22.532Z,100282.06
2024-01-24T21:43:49.377Z,100261.91
2024-01-24T21:46:16.570Z,100257.19
2024-01-24T21:48:43.290Z,100264.50
2024-01-24T21:51:09.972Z,100261.53
2024-01-24T21:53:36.701Z,100267.31
2024-01-24T21:56:03.502Z,100251.75
2024-01-24T21:58:30.236Z,100257.19
2024-01-24T22:00:57.104Z,100251.50
2024-01-24T22:03:23.893Z,100261.66
2024-01-24T22:05:50.562Z,100255.16
2024-01-24T22:08:19.483Z,100250.44
2024-01-24T22:10:46.497Z,100256.09
2024-01-24T22:13:13.429Z,100251.34
2024-01-24T22:15:40.490Z,100251.44
2024-01-24T22:18:08.287Z,100263.16
2024-01-24T22:20:35.460Z,100246.25
2024-01-24T22:23:02.181Z,100270.47
2024-01-24T22:25:29.463Z,100271.66
2024-01-24T22:27:56.921Z,100259.25
2024-01-24T22:30:23.884Z,100263.59
2024-01-24T22:32:50.692Z,100265.84
2024-01-24T22:35:18.708Z,100270.78
2024-01-24T22:37:45.585Z,100263.00
2024-01-24T22:40:12.421Z,100277.19
2024-01-24T22:42:43.000Z,100263.00
2024-01-24T22:45:39.309Z,100280.50
2024-01-24T22:48:07.177Z,100290.31
2024-01-24T22:50:34.244Z,100283.56
2024-01-24T22:53:01.182Z,100302.94
2024-01-24T22:55:28.078Z,100297.03
2024-01-24T22:57:55.048Z,100304.59
2024-01-24T23:00:23.090Z,100307.31
2024-01-24T23:02:50.103Z,100313.81
2024-01-24T23:05:17.642Z,100302.13
2024-01-24T23:07:45.291Z,100304.22
2024-01-24T23:10:12.232Z,100298.22
2024-01-24T23:12:53.136Z,100320.53
2024-01-24T23:15:24.198Z,100315.59
2024-01-24T23:17:53.598Z,100302.16
2024-01-24T23:20:22.355Z,100311.59
2024-01-24T23:22:51.390Z,100310.53
2024-01-24T23:25:19.080Z,100305.09
2024-01-24T23:27:46.570Z,100304.25
2024-01-24T23:30:17.324Z,100305.09
2024-01-24T23:32:48.674Z,100302.63
2024-01-24T23:35:16.581Z,100309.69
2024-01-24T23:37:44.345Z,100315.75
2024-01-24T23:40:12.479Z,100310.31
2024-01-24T23:42:39.950Z,100289.03
2024-01-24T23:45:07.040Z,100298.47
2024-01-24T23:47:33.831Z,100306.03
2024-01-24T23:50:02.653Z,100306.03
2024-01-24T23:52:29.809Z,100312.31
2024-01-24T23:54:56.567Z,100314.44
2024-01-24T23:57:23.332Z,100317.41
2024-01-24T23:59:50.136Z,100305.69
